Toledo, Arkansas
Current Conditions -  °F | °C
As of 10:53 PM on Saturday 22 Nov 2014 (Local Time) from KPBF Reporting Station
Overcast Overcast  
Wind Chill: 58°   Ceiling: 4500
Heat Index: 58°   Visibility: 10mi
Dew Point: 51°   Wind: 7mph
Humidity: 78%   Direction: 130°SE
Pressure: 29.9"   Gusts: NA
Location:  33.947°N, 92.1633°W
Report Text: KPBF 230453Z AUTO 13006KT 10SM OVC045 14/11 A2990 RMK AO2 SLP123 T01440106
Loading
Personal Weather Stations






























Interactive Weather Map New forecast layout! Learn more

10-Day Weather Forecast

Advertisements
Track Severe Weather on mobile